Latest Coastal Weather Observations for Point Fawcett

IDD60701

Issued at 12:31 am CST Tuesday 3 March 2015 (issued every 10 minutes, with the page automatically refreshed every 10 minutes)

About coastal observations | Map of coastal stations | Coastal observations for NT | Marine services | Other Formats
Station Details ID: 200731 Name: POINT FAWCETT Lat: -11.76 Lon: 130.03 Height: 6.5 m
Data from the previous 72 hours. | See also: Recent months at Point Fawcett
Date/Time
CST
Temp

°C
Wind Pressure Rain
since 9am
mm
Weather Cloud Vis
km
Sea
Height
m
Swell
Dir
 
Speed
knots
Gust
knots
hPa Trend Height
m
Period
s
Dir
03/12:30am 25.4 S 5 7 1005.7 - - - - - - - - -
03/12:00am 25.2 S 4 6 1005.6 - - - - - - - - -
 
Date/Time
CST
Temp

°C
Wind Pressure Rain
since 9am
mm
Weather Cloud Vis
km
Sea
Height
m
Swell
Dir
 
Speed
knots
Gust
knots
hPa Trend Height
m
Period
s
Dir
02/11:30pm 25.3 SSW 5 9 1006.0 - - - - - - - - -
02/11:00pm 25.4 S 3 6 1005.9 - - - - - - - - -
02/10:30pm 25.9 WSW 9 16 1005.4 - - - - - - - - -
02/10:00pm 25.3 SSE 4 6 1005.1 - - - - - - - - -
02/09:30pm 25.6 S 1 4 1004.8 - - - - - - - - -
02/09:00pm 25.4 S 5 7 1004.5 - - - - - - - - -
02/08:30pm 26.4 W 6 8 1004.4 - - - - - - - - -
02/08:00pm 27.6 SW 6 11 1004.7 - - - - - - - - -
02/07:30pm 26.4 SSW 8 13 1004.1 - - - - - - - - -
02/07:00pm 28.7 WSW 7 9 1003.6 - - - - - - - - -
02/06:30pm 29.0 SW 5 7 1003.6 - - - - - - - - -
02/06:00pm 29.2 WSW 6 8 1003.1 - - - - - - - - -
02/05:30pm 29.3 SW 7 10 1003.0 - - - - - - - - -
02/05:00pm 29.3 SW 6 9 1002.9 - - - - - - - - -
02/04:30pm 29.0 WSW 6 10 1003.0 - - - - - - - - -
02/04:00pm 28.8 WSW 8 12 1003.3 - - - - - - - - -
02/03:30pm 27.9 W 10 13 1003.6 - - - - - - - - -
02/03:00pm 27.8 W 9 11 1003.6 - - - - - - - - -
02/02:30pm 27.5 W 9 11 1003.9 - - - - - - - - -
02/02:00pm 26.9 W 9 12 1004.5 - - - - - - - - -
02/01:30pm 26.6 W 11 14 1004.9 - - - - - - - - -
02/01:00pm 26.7 W 11 15 1005.9 - - - - - - - - -
02/12:30pm 25.7 SW 9 14 1006.1 - - - - - - - - -
02/12:00pm 25.9 WSW 9 14 1007.2 - - - - - - - - -
02/11:30am 25.1 SSW 4 5 1007.4 - - - - - - - - -
02/11:00am 24.8 SW 10 17 1007.4 - - - - - - - - -
02/10:30am 24.4 S 10 23 1008.2 - - - - - - - - -
02/10:00am 29.2 W 8 11 1006.5 - - - - - - - - -
02/09:30am 29.5 W 9 13 1006.7 - - - - - - - - -
02/09:00am 29.4 W 11 15 1006.2 - - - - - - - - -
02/08:30am 29.3 W 9 12 1006.4 - - - - - - - - -
02/08:00am 29.0 W 11 15 1005.9 - - - - - - - - -
02/07:30am 28.8 W 10 14 1005.6 - - - - - - - - -
02/07:00am 28.7 W 11 14 1005.2 - - - - - - - - -
02/06:30am 28.5 W 9 12 1005.4 - - - - - - - - -
02/06:00am 28.5 W 10 13 1004.9 - - - - - - - - -
02/05:30am 28.6 W 10 12 1005.0 - - - - - - - - -
02/05:00am 28.4 W 10 13 1004.5 - - - - - - - - -
02/04:30am 28.5 W 11 15 1004.4 - - - - - - - - -
02/04:00am 28.6 W 10 14 1004.6 - - - - - - - - -
02/03:30am 28.4 W 10 13 1004.7 - - - - - - - - -
02/03:00am 28.4 W 8 11 1005.0 - - - - - - - - -
02/02:30am 28.4 WSW 7 10 1005.4 - - - - - - - - -
02/02:00am 28.4 W 8 12 1005.9 - - - - - - - - -
02/01:30am 28.6 WSW 8 12 1006.2 - - - - - - - - -
02/01:00am 28.5 WSW 8 11 1006.6 - - - - - - - - -
02/12:30am 28.8 W 12 15 1006.1 - - - - - - - - -
02/12:00am 28.6 W 11 14 1006.3 - - - - - - - - -
 
Date/Time
CST
Temp

°C
Wind Pressure Rain
since 9am
mm
Weather Cloud Vis
km
Sea
Height
m
Swell
Dir
 
Speed
knots
Gust
knots
hPa Trend Height
m
Period
s
Dir
01/11:30pm 28.6 W 10 13 1007.1 - - - - - - - - -
01/11:00pm 28.6 W 9 12 1007.7 - - - - - - - - -
01/10:30pm 28.5 WSW 7 10 1007.7 - - - - - - - - -
01/10:00pm 28.4 W 8 11 1007.4 - - - - - - - - -
01/09:30pm 28.4 W 9 12 1007.1 - - - - - - - - -
01/09:00pm 28.5 W 11 14 1006.6 - - - - - - - - -
01/08:30pm 28.4 W 12 15 1006.5 - - - - - - - - -
01/08:00pm 28.4 W 11 14 1006.3 - - - - - - - - -
01/07:30pm 28.5 W 12 15 1005.7 - - - - - - - - -
01/07:00pm 28.4 W 12 17 1005.4 - - - - - - - - -
01/06:30pm 28.6 W 15 19 1005.3 - - - - - - - - -
01/06:00pm 28.7 W 13 18 1005.3 - - - - - - - - -
01/05:30pm 29.0 W 10 15 1005.1 - - - - - - - - -
01/05:00pm 29.1 W 10 13 1004.6 - - - - - - - - -
01/04:30pm 28.9 WNW 13 17 1004.5 - - - - - - - - -
01/04:00pm 28.9 WNW 12 16 1004.9 - - - - - - - - -
01/03:30pm 28.6 W 12 15 1004.7 - - - - - - - - -
01/03:00pm 28.6 W 12 15 1004.9 - - - - - - - - -
01/02:30pm 29.2 W 9 13 1005.3 - - - - - - - - -
01/02:00pm 29.0 W 12 16 1005.6 - - - - - - - - -
01/01:30pm 29.3 WNW 13 16 1006.4 - - - - - - - - -
01/01:00pm 30.2 W 11 16 1006.9 - - - - - - - - -
01/12:30pm 31.0 W 10 13 1007.3 - - - - - - - - -
01/12:00pm 30.7 W 9 14 1007.4 - - - - - - - - -
01/11:30am 31.2 W 10 13 1007.5 - - - - - - - - -
01/11:00am 30.9 W 10 13 1007.8 - - - - - - - - -
01/10:30am 30.6 W 10 13 1008.2 - - - - - - - - -
01/10:00am 29.6 W 11 14 1008.3 - - - - - - - - -
01/09:30am 29.7 W 11 14 1008.1 - - - - - - - - -
01/09:00am 29.2 W 11 15 1007.8 - - - - - - - - -
01/08:30am 29.1 W 11 14 1007.2 - - - - - - - - -
01/08:00am 28.9 W 11 14 1006.8 - - - - - - - - -
01/07:30am 28.7 W 12 16 1006.2 - - - - - - - - -
01/07:00am 28.6 W 11 13 1006.0 - - - - - - - - -
01/06:30am 28.6 W 11 14 1005.8 - - - - - - - - -
01/06:00am 28.6 W 11 15 1005.6 - - - - - - - - -
01/05:30am 28.7 W 12 14 1005.6 - - - - - - - - -
01/05:00am 28.5 W 12 14 1005.5 - - - - - - - - -
01/04:30am 28.6 W 11 15 1005.4 - - - - - - - - -
01/04:00am 28.6 W 11 13 1005.7 - - - - - - - - -
01/03:30am 28.7 W 12 15 1005.7 - - - - - - - - -
01/03:00am 28.5 W 12 16 1005.6 - - - - - - - - -
01/02:30am 28.5 W 11 15 1006.4 - - - - - - - - -
01/02:00am 28.4 W 10 13 1006.7 - - - - - - - - -
01/01:30am 28.6 W 12 15 1006.8 - - - - - - - - -
01/01:00am 28.6 W 11 14 1007.0 - - - - - - - - -
01/12:30am 28.4 W 10 13 1007.5 - - - - - - - - -
01/12:00am 28.6 W 10 13 1008.0 - - - - - - - - -
 
Date/Time
CST
Temp

°C
Wind Pressure Rain
since 9am
mm
Weather Cloud Vis
km
Sea
Height
m
Swell
Dir
 
Speed
knots
Gust
knots
hPa Trend Height
m
Period
s
Dir
28/11:30pm 28.5 W 11 15 1008.1 - - - - - - - - -
28/11:00pm 28.7 W 12 14 1008.5 - - - - - - - - -
28/10:30pm 28.9 W 11 15 1008.7 - - - - - - - - -
28/10:00pm 28.7 W 10 14 1008.3 - - - - - - - - -
28/09:30pm 28.7 W 10 14 1007.7 - - - - - - - - -
28/09:00pm 28.7 W 10 13 1006.7 - - - - - - - - -
28/08:30pm 28.3 W 8 10 1006.4 - - - - - - - - -
28/08:00pm 28.1 WSW 7 10 1006.1 - - - - - - - - -
28/07:30pm 28.2 W 9 12 1005.8 - - - - - - - - -
28/07:00pm 28.6 W 10 13 1005.6 - - - - - - - - -
28/06:30pm 29.3 W 9 13 1005.3 - - - - - - - - -
28/06:00pm 29.7 W 11 14 1005.0 - - - - - - - - -
28/05:30pm 29.7 W 10 15 1005.1 - - - - - - - - -
28/05:00pm 29.2 W 8 11 1005.2 - - - - - - - - -
28/04:30pm 29.4 WSW 10 13 1005.3 - - - - - - - - -
28/04:00pm 29.6 W 12 16 1005.6 - - - - - - - - -
28/03:30pm 30.2 W 12 16 1005.7 - - - - - - - - -
28/03:00pm 30.3 W 13 17 1006.1 - - - - - - - - -
28/02:30pm 30.3 W 12 17 1006.4 - - - - - - - - -
28/02:00pm 31.4 W 11 16 1006.5 - - - - - - - - -
28/01:30pm 30.5 W 13 18 1007.2 - - - - - - - - -
28/01:00pm 30.0 W 13 17 1007.7 - - - - - - - - -
28/12:30pm 29.7 W 12 15 1007.9 - - - - - - - - -
28/12:00pm 30.0 W 13 16 1008.1 - - - - - - - - -
28/11:30am 29.4 WNW 14 18 1008.3 - - - - - - - - -
28/11:00am 29.9 WNW 14 17 1008.6 - - - - - - - - -
28/10:30am 29.4 W 13 16 1008.7 - - - - - - - - -
28/10:00am 29.2 W 12 16 1008.7 - - - - - - - - -
28/09:30am 29.2 W 16 19 1008.0 - - - - - - - - -
28/09:00am 28.7 W 14 18 1007.6 - - - - - - - - -
28/08:30am 28.4 W 14 17 1007.4 - - - - - - - - -
28/08:00am 28.0 W 11 15 1007.2 - - - - - - - - -
28/07:30am 27.9 WSW 10 14 1006.9 - - - - - - - - -
28/07:00am 27.2 SW 8 11 1007.1 - - - - - - - - -
28/06:30am 26.6 S 4 6 1007.3 - - - - - - - - -
28/06:00am 26.9 S 5 7 1006.8 - - - - - - - - -
28/05:30am 27.0 SSW 6 11 1006.4 - - - - - - - - -
28/05:00am 27.0 SSW 6 9 1005.8 - - - - - - - - -
28/04:30am 27.4 WSW 8 13 1005.2 - - - - - - - - -
28/04:00am 27.7 W 10 13 1005.7 - - - - - - - - -
28/03:30am 27.5 WNW 12 14 1006.1 - - - - - - - - -
28/03:00am 27.6 W 15 18 1006.8 - - - - - - - - -
28/02:30am 28.3 WNW 15 19 1007.3 - - - - - - - - -
28/02:00am 28.3 WNW 14 17 1007.6 - - - - - - - - -
28/01:30am 28.0 NW 14 17 1008.0 - - - - - - - - -
28/01:00am 27.9 NW 13 17 1008.0 - - - - - - - - -

Other Formats:

Comma delimited format used in spreadsheet applications
http://www.bom.gov.au/fwo/IDD60701/IDD60701.94122.axf

JavaScript Object Notation format (JSON) in row-major order
http://www.bom.gov.au/fwo/IDD60701/IDD60701.94122.json